sensor_id;sensor_type;location;lat;lon;timestamp;pressure;altitude;pressure_sealevel;temperature;humidity
54248;BME280;40161;39.768;2.722;2023-04-06T00:00:54;101615.13;;;11.08;86.41
54248;BME280;40161;39.768;2.722;2023-04-06T00:03:20;101590.56;;;10.99;85.26
54248;BME280;40161;39.768;2.722;2023-04-06T00:05:47;101600.81;;;11.14;84.02
54248;BME280;40161;39.768;2.722;2023-04-06T00:08:13;101608.41;;;11.05;84.19
54248;BME280;40161;39.768;2.722;2023-04-06T00:10:38;101610.63;;;10.87;84.42
54248;BME280;40161;39.768;2.722;2023-04-06T00:13:05;101611.81;;;10.62;86.67
54248;BME280;40161;39.768;2.722;2023-04-06T00:15:31;101612.91;;;10.73;87.92
54248;BME280;40161;39.768;2.722;2023-04-06T00:17:57;101593.69;;;10.85;86.93
54248;BME280;40161;39.768;2.722;2023-04-06T00:20:22;101601.97;;;11.13;84.38
54248;BME280;40161;39.768;2.722;2023-04-06T00:22:48;101601.94;;;10.85;83.74
54248;BME280;40161;39.768;2.722;2023-04-06T00:25:14;101603.56;;;10.74;85.34
54248;BME280;40161;39.768;2.722;2023-04-06T00:27:41;101600.81;;;10.74;84.50
54248;BME280;40161;39.768;2.722;2023-04-06T00:30:07;101602.53;;;10.54;84.00
54248;BME280;40161;39.768;2.722;2023-04-06T00:32:34;101594.19;;;10.38;86.33
54248;BME280;40161;39.768;2.722;2023-04-06T00:35:05;101591.75;;;10.25;87.02
54248;BME280;40161;39.768;2.722;2023-04-06T00:37:31;101602.44;;;10.26;87.53
54248;BME280;40161;39.768;2.722;2023-04-06T00:39:57;101604.47;;;10.78;85.55
54248;BME280;40161;39.768;2.722;2023-04-06T00:42:23;101605.25;;;10.91;83.00
54248;BME280;40161;39.768;2.722;2023-04-06T00:44:56;101600.03;;;10.74;82.87
54248;BME280;40161;39.768;2.722;2023-04-06T00:47:23;101593.06;;;10.52;83.03
54248;BME280;40161;39.768;2.722;2023-04-06T00:49:50;101596.47;;;10.12;85.75
54248;BME280;40161;39.768;2.722;2023-04-06T00:52:16;101608.78;;;10.18;86.56
54248;BME280;40161;39.768;2.722;2023-04-06T00:54:41;101598.50;;;10.15;86.78
54248;BME280;40161;39.768;2.722;2023-04-06T00:57:07;101609.88;;;10.26;87.09
54248;BME280;40161;39.768;2.722;2023-04-06T00:59:32;101608.22;;;10.25;85.67
54248;BME280;40161;39.768;2.722;2023-04-06T01:01:58;101603.09;;;10.23;85.54
54248;BME280;40161;39.768;2.722;2023-04-06T01:04:24;101605.28;;;10.54;84.91
54248;BME280;40161;39.768;2.722;2023-04-06T01:06:51;101604.94;;;10.56;83.76
54248;BME280;40161;39.768;2.722;2023-04-06T01:09:17;101594.06;;;10.72;82.70
54248;BME280;40161;39.768;2.722;2023-04-06T01:11:42;101585.97;;;10.51;82.44
54248;BME280;40161;39.768;2.722;2023-04-06T01:14:08;101593.94;;;10.19;83.43
54248;BME280;40161;39.768;2.722;2023-04-06T01:16:35;101597.59;;;10.11;85.39
54248;BME280;40161;39.768;2.722;2023-04-06T01:19:01;101574.41;;;10.08;85.14
54248;BME280;40161;39.768;2.722;2023-04-06T01:21:27;101590.72;;;9.92;85.42
54248;BME280;40161;39.768;2.722;2023-04-06T01:23:52;101584.56;;;10.08;85.76
54248;BME280;40161;39.768;2.722;2023-04-06T01:26:18;101579.16;;;9.87;84.99
54248;BME280;40161;39.768;2.722;2023-04-06T01:28:43;101561.06;;;9.61;86.45
54248;BME280;40161;39.768;2.722;2023-04-06T01:31:11;101586.81;;;9.81;87.35
54248;BME280;40161;39.768;2.722;2023-04-06T01:33:36;101579.06;;;9.95;86.54
54248;BME280;40161;39.768;2.722;2023-04-06T01:36:03;101580.56;;;10.17;84.84
54248;BME280;40161;39.768;2.722;2023-04-06T01:38:29;101574.09;;;10.34;82.61
54248;BME280;40161;39.768;2.722;2023-04-06T01:40:55;101583.81;;;10.44;82.62
54248;BME280;40161;39.768;2.722;2023-04-06T01:43:20;101578.41;;;10.35;80.48
54248;BME280;40161;39.768;2.722;2023-04-06T01:45:47;101573.69;;;10.11;82.99
54248;BME280;40161;39.768;2.722;2023-04-06T01:48:12;101579.63;;;10.01;84.52
54248;BME280;40161;39.768;2.722;2023-04-06T01:50:38;101570.38;;;9.81;85.56
54248;BME280;40161;39.768;2.722;2023-04-06T01:53:03;101580.22;;;9.94;85.97
54248;BME280;40161;39.768;2.722;2023-04-06T01:55:29;101586.69;;;9.78;84.44
54248;BME280;40161;39.768;2.722;2023-04-06T01:57:54;101588.78;;;9.81;84.97
54248;BME280;40161;39.768;2.722;2023-04-06T02:00:20;101592.72;;;9.71;86.18
54248;BME280;40161;39.768;2.722;2023-04-06T02:02:46;101582.69;;;9.75;86.64
54248;BME280;40161;39.768;2.722;2023-04-06T02:05:11;101568.16;;;9.62;85.25
54248;BME280;40161;39.768;2.722;2023-04-06T02:07:37;101595.84;;;9.94;84.92
54248;BME280;40161;39.768;2.722;2023-04-06T02:10:03;101591.28;;;9.86;84.75
54248;BME280;40161;39.768;2.722;2023-04-06T02:12:29;101578.84;;;10.01;84.16
54248;BME280;40161;39.768;2.722;2023-04-06T02:14:54;101559.53;;;9.97;82.58
54248;BME280;40161;39.768;2.722;2023-04-06T02:17:20;101580.19;;;9.82;82.31
54248;BME280;40161;39.768;2.722;2023-04-06T02:19:45;101585.00;;;9.52;84.57
54248;BME280;40161;39.768;2.722;2023-04-06T02:22:12;101598.16;;;9.46;85.28
54248;BME280;40161;39.768;2.722;2023-04-06T02:24:38;101591.03;;;9.45;85.30
54248;BME280;40161;39.768;2.722;2023-04-06T02:27:03;101597.88;;;9.72;85.99
54248;BME280;40161;39.768;2.722;2023-04-06T02:29:29;101598.28;;;9.50;84.24
54248;BME280;40161;39.768;2.722;2023-04-06T02:31:54;101608.53;;;9.53;86.33
54248;BME280;40161;39.768;2.722;2023-04-06T02:34:20;101596.09;;;9.56;86.24
54248;BME280;40161;39.768;2.722;2023-04-06T02:36:46;101607.78;;;9.65;84.76
54248;BME280;40161;39.768;2.722;2023-04-06T02:39:12;101594.94;;;9.44;84.68
54248;BME280;40161;39.768;2.722;2023-04-06T02:41:38;101590.50;;;9.52;87.09
54248;BME280;40161;39.768;2.722;2023-04-06T02:44:08;101606.81;;;9.82;85.10
54248;BME280;40161;39.768;2.722;2023-04-06T02:46:34;101585.44;;;9.42;84.64
54248;BME280;40161;39.768;2.722;2023-04-06T02:49:00;101607.97;;;9.60;85.61
54248;BME280;40161;39.768;2.722;2023-04-06T02:51:26;101605.34;;;9.51;87.12
54248;BME280;40161;39.768;2.722;2023-04-06T02:53:52;101575.28;;;9.42;86.27
54248;BME280;40161;39.768;2.722;2023-04-06T02:56:18;101590.25;;;9.78;84.79
54248;BME280;40161;39.768;2.722;2023-04-06T02:58:46;101591.75;;;9.88;84.70
54248;BME280;40161;39.768;2.722;2023-04-06T03:01:12;101555.72;;;9.77;83.79
54248;BME280;40161;39.768;2.722;2023-04-06T03:03:37;101569.69;;;9.84;83.50
54248;BME280;40161;39.768;2.722;2023-04-06T03:06:03;101603.56;;;9.67;82.75
54248;BME280;40161;39.768;2.722;2023-04-06T03:08:28;101605.94;;;9.36;86.55
54248;BME280;40161;39.768;2.722;2023-04-06T03:10:54;101582.56;;;9.38;87.12
54248;BME280;40161;39.768;2.722;2023-04-06T03:13:20;101592.97;;;9.33;86.56
54248;BME280;40161;39.768;2.722;2023-04-06T03:15:46;101580.84;;;9.34;87.61
54248;BME280;40161;39.768;2.722;2023-04-06T03:18:12;101585.00;;;9.52;87.07
54248;BME280;40161;39.768;2.722;2023-04-06T03:20:38;101577.88;;;9.72;85.94
54248;BME280;40161;39.768;2.722;2023-04-06T03:23:03;101578.09;;;9.67;84.87
54248;BME280;40161;39.768;2.722;2023-04-06T03:25:29;101581.28;;;9.69;85.57
54248;BME280;40161;39.768;2.722;2023-04-06T03:27:57;101567.63;;;9.93;84.51
54248;BME280;40161;39.768;2.722;2023-04-06T03:30:23;101581.03;;;9.95;83.20
54248;BME280;40161;39.768;2.722;2023-04-06T03:32:48;101595.28;;;9.88;83.11
54248;BME280;40161;39.768;2.722;2023-04-06T03:35:14;101584.22;;;9.51;85.53
54248;BME280;40161;39.768;2.722;2023-04-06T03:37:40;101581.66;;;9.34;85.92
54248;BME280;40161;39.768;2.722;2023-04-06T03:40:06;101579.31;;;9.24;88.02
54248;BME280;40161;39.768;2.722;2023-04-06T03:42:31;101590.09;;;9.29;86.68
54248;BME280;40161;39.768;2.722;2023-04-06T03:44:58;101584.81;;;9.24;87.01
54248;BME280;40161;39.768;2.722;2023-04-06T03:47:24;101582.09;;;9.69;86.70
54248;BME280;40161;39.768;2.722;2023-04-06T03:49:49;101580.69;;;9.51;84.79
54248;BME280;40161;39.768;2.722;2023-04-06T03:52:15;101566.81;;;9.35;85.03
54248;BME280;40161;39.768;2.722;2023-04-06T03:54:40;101580.66;;;9.18;86.00
54248;BME280;40161;39.768;2.722;2023-04-06T03:57:06;101579.25;;;9.33;87.51
54248;BME280;40161;39.768;2.722;2023-04-06T03:59:32;101575.13;;;9.06;86.77
54248;BME280;40161;39.768;2.722;2023-04-06T04:01:57;101572.06;;;9.07;87.59
54248;BME280;40161;39.768;2.722;2023-04-06T04:04:23;101573.88;;;9.03;88.16
54248;BME280;40161;39.768;2.722;2023-04-06T04:06:48;101556.91;;;8.89;88.69
54248;BME280;40161;39.768;2.722;2023-04-06T04:09:14;101592.91;;;9.54;87.12
54248;BME280;40161;39.768;2.722;2023-04-06T04:11:40;101588.47;;;9.61;86.44
54248;BME280;40161;39.768;2.722;2023-04-06T04:14:05;101582.53;;;9.59;84.50
54248;BME280;40161;39.768;2.722;2023-04-06T04:16:31;101590.78;;;9.38;86.06
54248;BME280;40161;39.768;2.722;2023-04-06T04:18:56;101588.34;;;9.24;86.65
54248;BME280;40161;39.768;2.722;2023-04-06T04:21:24;101588.06;;;9.17;88.62
54248;BME280;40161;39.768;2.722;2023-04-06T04:23:51;101604.84;;;9.37;87.54
54248;BME280;40161;39.768;2.722;2023-04-06T04:26:18;101601.25;;;9.24;87.72
54248;BME280;40161;39.768;2.722;2023-04-06T04:28:43;101605.03;;;9.11;88.25
54248;BME280;40161;39.768;2.722;2023-04-06T04:31:09;101591.97;;;8.95;89.89
54248;BME280;40161;39.768;2.722;2023-04-06T04:33:34;101600.72;;;9.10;90.22
54248;BME280;40161;39.768;2.722;2023-04-06T04:36:00;101601.09;;;9.20;89.50
54248;BME280;40161;39.768;2.722;2023-04-06T04:38:25;101595.22;;;9.31;89.79
54248;BME280;40161;39.768;2.722;2023-04-06T04:40:51;101598.50;;;9.24;87.49
54248;BME280;40161;39.768;2.722;2023-04-06T04:43:16;101588.63;;;9.11;88.77
54248;BME280;40161;39.768;2.722;2023-04-06T04:45:42;101588.28;;;9.33;88.84
54248;BME280;40161;39.768;2.722;2023-04-06T04:48:07;101593.72;;;9.54;87.07
54248;BME280;40161;39.768;2.722;2023-04-06T04:50:33;101580.81;;;9.55;86.78
54248;BME280;40161;39.768;2.722;2023-04-06T04:52:59;101584.22;;;9.51;85.98
54248;BME280;40161;39.768;2.722;2023-04-06T04:55:25;101584.28;;;9.64;86.50
54248;BME280;40161;39.768;2.722;2023-04-06T04:57:51;101598.91;;;9.80;84.61
54248;BME280;40161;39.768;2.722;2023-04-06T05:00:16;101588.94;;;9.30;84.31
54248;BME280;40161;39.768;2.722;2023-04-06T05:02:42;101600.09;;;9.25;87.31
54248;BME280;40161;39.768;2.722;2023-04-06T05:05:08;101608.84;;;8.97;89.05
54248;BME280;40161;39.768;2.722;2023-04-06T05:07:34;101599.72;;;8.93;90.26
54248;BME280;40161;39.768;2.722;2023-04-06T05:10:00;101606.59;;;8.99;91.07
54248;BME280;40161;39.768;2.722;2023-04-06T05:12:26;101601.44;;;8.98;91.21
54248;BME280;40161;39.768;2.722;2023-04-06T05:14:53;101603.50;;;9.22;89.41
54248;BME280;40161;39.768;2.722;2023-04-06T05:17:20;101610.75;;;9.06;88.80
54248;BME280;40161;39.768;2.722;2023-04-06T05:19:46;101596.56;;;9.24;89.30
54248;BME280;40161;39.768;2.722;2023-04-06T05:22:12;101616.44;;;9.55;87.08
54248;BME280;40161;39.768;2.722;2023-04-06T05:24:39;101625.06;;;9.44;85.73
54248;BME280;40161;39.768;2.722;2023-04-06T05:27:05;101619.94;;;9.22;87.66
54248;BME280;40161;39.768;2.722;2023-04-06T05:29:31;101619.94;;;9.01;87.93
54248;BME280;40161;39.768;2.722;2023-04-06T05:31:56;101625.50;;;9.13;88.93
54248;BME280;40161;39.768;2.722;2023-04-06T05:34:22;101619.13;;;9.21;88.48
54248;BME280;40161;39.768;2.722;2023-04-06T05:36:48;101615.69;;;9.12;86.63
54248;BME280;40161;39.768;2.722;2023-04-06T05:39:14;101626.16;;;9.10;87.66
54248;BME280;40161;39.768;2.722;2023-04-06T05:41:40;101631.03;;;9.04;89.53
54248;BME280;40161;39.768;2.722;2023-04-06T05:44:06;101631.84;;;9.05;nan
54248;BME280;40161;39.768;2.722;2023-04-06T05:46:31;101637.84;;;8.98;88.95
54248;BME280;40161;39.768;2.722;2023-04-06T05:48:57;101627.81;;;8.82;89.70
54248;BME280;40161;39.768;2.722;2023-04-06T05:51:23;101643.66;;;9.18;90.14
54248;BME280;40161;39.768;2.722;2023-04-06T05:53:48;101620.06;;;9.04;87.24
54248;BME280;40161;39.768;2.722;2023-04-06T05:56:14;101644.03;;;9.28;88.02
54248;BME280;40161;39.768;2.722;2023-04-06T05:58:40;101643.78;;;9.42;87.20
54248;BME280;40161;39.768;2.722;2023-04-06T06:01:05;101643.59;;;9.47;86.29
54248;BME280;40161;39.768;2.722;2023-04-06T06:03:31;101644.03;;;9.49;86.81
54248;BME280;40161;39.768;2.722;2023-04-06T06:06:02;101652.47;;;9.44;86.07
54248;BME280;40161;39.768;2.722;2023-04-06T06:08:28;101661.13;;;9.04;87.80
54248;BME280;40161;39.768;2.722;2023-04-06T06:10:54;101653.31;;;8.94;89.52
54248;BME280;40161;39.768;2.722;2023-04-06T06:13:19;101652.94;;;9.04;89.45
54248;BME280;40161;39.768;2.722;2023-04-06T06:15:46;101655.13;;;9.11;90.24
54248;BME280;40161;39.768;2.722;2023-04-06T06:18:11;101651.69;;;9.02;91.46
54248;BME280;40161;39.768;2.722;2023-04-06T06:20:37;101647.88;;;9.15;91.70
54248;BME280;40161;39.768;2.722;2023-04-06T06:23:02;101660.47;;;9.28;90.83
54248;BME280;40161;39.768;2.722;2023-04-06T06:25:28;101656.22;;;9.40;89.72
54248;BME280;40161;39.768;2.722;2023-04-06T06:27:56;101659.28;;;9.38;89.76
54248;BME280;40161;39.768;2.722;2023-04-06T06:30:21;101655.97;;;9.33;89.53
54248;BME280;40161;39.768;2.722;2023-04-06T06:32:47;101663.22;;;9.49;89.38
54248;BME280;40161;39.768;2.722;2023-04-06T06:35:13;101659.94;;;9.56;89.02
54248;BME280;40161;39.768;2.722;2023-04-06T06:37:39;101655.72;;;9.59;88.92
54248;BME280;40161;39.768;2.722;2023-04-06T06:40:05;101662.13;;;9.63;87.83
54248;BME280;40161;39.768;2.722;2023-04-06T06:42:32;101651.03;;;9.59;87.48
54248;BME280;40161;39.768;2.722;2023-04-06T06:44:57;101655.81;;;9.50;89.90
54248;BME280;40161;39.768;2.722;2023-04-06T06:47:23;101651.19;;;9.42;90.64
54248;BME280;40161;39.768;2.722;2023-04-06T06:49:48;101657.19;;;9.56;91.14
54248;BME280;40161;39.768;2.722;2023-04-06T06:52:14;101653.66;;;9.56;91.11
54248;BME280;40161;39.768;2.722;2023-04-06T06:54:40;101665.94;;;9.70;91.97
54248;BME280;40161;39.768;2.722;2023-04-06T06:57:05;101665.06;;;9.79;91.79
54248;BME280;40161;39.768;2.722;2023-04-06T06:59:31;101660.28;;;9.88;91.56
54248;BME280;40161;39.768;2.722;2023-04-06T07:01:57;101659.97;;;10.02;92.89
54248;BME280;40161;39.768;2.722;2023-04-06T07:04:22;101650.94;;;10.01;92.50
54248;BME280;40161;39.768;2.722;2023-04-06T07:06:48;101654.41;;;10.22;92.51
54248;BME280;40161;39.768;2.722;2023-04-06T07:09:13;101642.44;;;10.27;91.74
54248;BME280;40161;39.768;2.722;2023-04-06T07:11:39;101647.47;;;10.37;90.78
54248;BME280;40161;39.768;2.722;2023-04-06T07:14:04;101645.31;;;10.43;90.31
54248;BME280;40161;39.768;2.722;2023-04-06T07:16:30;101649.09;;;10.51;90.11
54248;BME280;40161;39.768;2.722;2023-04-06T07:18:55;101648.06;;;10.55;88.95
54248;BME280;40161;39.768;2.722;2023-04-06T07:21:21;101657.44;;;10.54;88.97
54248;BME280;40161;39.768;2.722;2023-04-06T07:23:47;101671.97;;;10.67;88.87
54248;BME280;40161;39.768;2.722;2023-04-06T07:26:13;101674.59;;;10.76;88.15
54248;BME280;40161;39.768;2.722;2023-04-06T07:28:39;101644.84;;;10.65;87.29
54248;BME280;40161;39.768;2.722;2023-04-06T07:31:04;101683.25;;;11.02;88.45
54248;BME280;40161;39.768;2.722;2023-04-06T07:33:30;101675.25;;;11.09;87.63
54248;BME280;40161;39.768;2.722;2023-04-06T07:35:56;101672.44;;;11.22;86.68
54248;BME280;40161;39.768;2.722;2023-04-06T07:38:23;101654.28;;;11.17;86.69
54248;BME280;40161;39.768;2.722;2023-04-06T07:40:49;101658.84;;;11.25;85.49
54248;BME280;40161;39.768;2.722;2023-04-06T07:43:14;101638.69;;;11.21;84.38
54248;BME280;40161;39.768;2.722;2023-04-06T07:45:40;101676.47;;;11.52;82.84
54248;BME280;40161;39.768;2.722;2023-04-06T07:48:06;101683.53;;;11.65;83.91
54248;BME280;40161;39.768;2.722;2023-04-06T07:50:32;101691.38;;;11.79;83.74
54248;BME280;40161;39.768;2.722;2023-04-06T07:52:57;101699.16;;;11.90;83.48
54248;BME280;40161;39.768;2.722;2023-04-06T07:55:23;101697.75;;;11.96;83.19
54248;BME280;40161;39.768;2.722;2023-04-06T07:57:48;101697.63;;;12.04;82.11
54248;BME280;40161;39.768;2.722;2023-04-06T08:00:14;101704.53;;;12.14;80.61
54248;BME280;40161;39.768;2.722;2023-04-06T08:02:40;101701.97;;;12.21;79.60
54248;BME280;40161;39.768;2.722;2023-04-06T08:05:06;101707.41;;;12.33;79.24
54248;BME280;40161;39.768;2.722;2023-04-06T08:07:32;101706.09;;;12.43;78.75
54248;BME280;40161;39.768;2.722;2023-04-06T08:09:57;101702.72;;;12.50;78.37
54248;BME280;40161;39.768;2.722;2023-04-06T08:12:23;101710.94;;;12.66;78.36
54248;BME280;40161;39.768;2.722;2023-04-06T08:14:49;101702.06;;;12.72;78.28
54248;BME280;40161;39.768;2.722;2023-04-06T08:17:14;101710.16;;;12.81;78.24
54248;BME280;40161;39.768;2.722;2023-04-06T08:19:42;101702.78;;;12.85;78.25
54248;BME280;40161;39.768;2.722;2023-04-06T08:22:08;101700.19;;;12.92;77.09
54248;BME280;40161;39.768;2.722;2023-04-06T08:24:35;101711.44;;;13.03;77.33
54248;BME280;40161;39.768;2.722;2023-04-06T08:27:00;101717.19;;;13.14;77.49
54248;BME280;40161;39.768;2.722;2023-04-06T08:29:26;101701.44;;;13.14;76.82
54248;BME280;40161;39.768;2.722;2023-04-06T08:31:51;101718.06;;;13.34;76.83
54248;BME280;40161;39.768;2.722;2023-04-06T08:34:17;101716.97;;;13.38;75.69
54248;BME280;40161;39.768;2.722;2023-04-06T08:36:42;101713.16;;;13.43;75.79
54248;BME280;40161;39.768;2.722;2023-04-06T08:39:08;101710.81;;;13.45;75.61
54248;BME280;40161;39.768;2.722;2023-04-06T08:41:34;101728.56;;;13.63;73.99
54248;BME280;40161;39.768;2.722;2023-04-06T08:44:00;101722.72;;;13.68;73.47
54248;BME280;40161;39.768;2.722;2023-04-06T08:46:27;101720.97;;;13.80;73.89
54248;BME280;40161;39.768;2.722;2023-04-06T08:49:01;101722.66;;;13.84;72.86
54248;BME280;40161;39.768;2.722;2023-04-06T08:51:28;101727.47;;;13.87;72.64
54248;BME280;40161;39.768;2.722;2023-04-06T08:53:55;101726.34;;;13.92;72.69
54248;BME280;40161;39.768;2.722;2023-04-06T08:56:22;101723.22;;;13.93;71.93
54248;BME280;40161;39.768;2.722;2023-04-06T08:58:49;101739.56;;;14.21;72.47
54248;BME280;40161;39.768;2.722;2023-04-06T09:01:18;101721.38;;;14.20;71.40
54248;BME280;40161;39.768;2.722;2023-04-06T09:03:46;101725.13;;;14.32;72.52
54248;BME280;40161;39.768;2.722;2023-04-06T09:06:12;101743.97;;;14.49;72.68
54248;BME280;40161;39.768;2.722;2023-04-06T09:08:39;101733.28;;;14.47;72.48
54248;BME280;40161;39.768;2.722;2023-04-06T09:11:07;101732.66;;;14.54;72.59
54248;BME280;40161;39.768;2.722;2023-04-06T09:13:51;101736.69;;;14.60;72.19
54248;BME280;40161;39.768;2.722;2023-04-06T09:16:17;101728.59;;;14.71;71.83
54248;BME280;40161;39.768;2.722;2023-04-06T09:18:44;101709.56;;;14.66;71.84
54248;BME280;40161;39.768;2.722;2023-04-06T09:21:10;101730.03;;;14.88;71.48
54248;BME280;40161;39.768;2.722;2023-04-06T09:23:36;101732.41;;;14.89;70.90
54248;BME280;40161;39.768;2.722;2023-04-06T09:26:05;101727.00;;;14.96;69.25
54248;BME280;40161;39.768;2.722;2023-04-06T09:28:47;101718.72;;;14.96;69.55
54248;BME280;40161;39.768;2.722;2023-04-06T09:31:17;101723.59;;;15.07;69.49
54248;BME280;40161;39.768;2.722;2023-04-06T09:33:44;101714.50;;;15.06;69.56
54248;BME280;40161;39.768;2.722;2023-04-06T09:36:11;101716.69;;;15.20;69.37
54248;BME280;40161;39.768;2.722;2023-04-06T09:38:54;101716.44;;;15.29;69.36
54248;BME280;40161;39.768;2.722;2023-04-06T09:41:25;101714.94;;;15.35;69.43
54248;BME280;40161;39.768;2.722;2023-04-06T09:43:52;101699.19;;;15.39;69.16
54248;BME280;40161;39.768;2.722;2023-04-06T09:46:20;101712.00;;;15.54;68.43
54248;BME280;40161;39.768;2.722;2023-04-06T09:48:46;101716.34;;;15.55;67.38
54248;BME280;40161;39.768;2.722;2023-04-06T09:51:14;101704.50;;;15.55;67.59
54248;BME280;40161;39.768;2.722;2023-04-06T09:53:42;101706.56;;;15.61;68.54
54248;BME280;40161;39.768;2.722;2023-04-06T09:56:13;101680.34;;;15.52;67.83
54248;BME280;40161;39.768;2.722;2023-04-06T09:58:45;101711.97;;;15.81;67.21
54248;BME280;40161;39.768;2.722;2023-04-06T10:01:17;101701.22;;;15.76;66.40
54248;BME280;40161;39.768;2.722;2023-04-06T10:03:49;101709.78;;;15.97;66.87
54248;BME280;40161;39.768;2.722;2023-04-06T10:06:18;101713.00;;;16.03;66.22
54248;BME280;40161;39.768;2.722;2023-04-06T10:08:47;101705.47;;;16.03;65.92
54248;BME280;40161;39.768;2.722;2023-04-06T10:11:15;101712.69;;;16.11;67.79
54248;BME280;40161;39.768;2.722;2023-04-06T10:13:41;101691.31;;;16.08;67.42
54248;BME280;40161;39.768;2.722;2023-04-06T10:16:08;101714.72;;;16.14;66.92
54248;BME280;40161;39.768;2.722;2023-04-06T10:18:34;101697.72;;;16.20;66.44
54248;BME280;40161;39.768;2.722;2023-04-06T10:21:07;101726.75;;;16.33;66.05
54248;BME280;40161;39.768;2.722;2023-04-06T10:23:39;101725.59;;;16.37;66.54
54248;BME280;40161;39.768;2.722;2023-04-06T10:26:15;101719.69;;;16.39;66.83
54248;BME280;40161;39.768;2.722;2023-04-06T10:28:43;101705.00;;;16.35;67.33
54248;BME280;40161;39.768;2.722;2023-04-06T10:31:09;101703.06;;;16.39;66.82
54248;BME280;40161;39.768;2.722;2023-04-06T10:33:35;101720.22;;;16.52;67.45
54248;BME280;40161;39.768;2.722;2023-04-06T10:36:14;101726.53;;;16.52;66.27
54248;BME280;40161;39.768;2.722;2023-04-06T10:38:41;101700.72;;;16.45;66.90
54248;BME280;40161;39.768;2.722;2023-04-06T10:41:11;101704.31;;;16.45;66.29
54248;BME280;40161;39.768;2.722;2023-04-06T10:43:39;101724.19;;;16.58;66.87
54248;BME280;40161;39.768;2.722;2023-04-06T10:46:05;101723.44;;;16.61;66.96
54248;BME280;40161;39.768;2.722;2023-04-06T10:48:40;101714.28;;;16.53;66.31
54248;BME280;40161;39.768;2.722;2023-04-06T10:51:11;101725.84;;;16.63;66.82
54248;BME280;40161;39.768;2.722;2023-04-06T10:53:37;101723.50;;;16.68;66.72
54248;BME280;40161;39.768;2.722;2023-04-06T10:56:09;101715.19;;;16.72;66.98
54248;BME280;40161;39.768;2.722;2023-04-06T10:58:36;101729.13;;;16.79;66.30
54248;BME280;40161;39.768;2.722;2023-04-06T11:01:02;101704.09;;;16.68;65.71
54248;BME280;40161;39.768;2.722;2023-04-06T11:03:27;101721.22;;;16.77;65.70
54248;BME280;40161;39.768;2.722;2023-04-06T11:05:53;101698.19;;;16.70;65.64
54248;BME280;40161;39.768;2.722;2023-04-06T11:08:32;101716.81;;;16.73;65.21
54248;BME280;40161;39.768;2.722;2023-04-06T11:11:05;101725.25;;;16.87;65.68
54248;BME280;40161;39.768;2.722;2023-04-06T11:13:51;101726.06;;;16.91;65.19
54248;BME280;40161;39.768;2.722;2023-04-06T11:16:25;101711.03;;;16.92;65.29
54248;BME280;40161;39.768;2.722;2023-04-06T11:18:51;101726.16;;;17.05;64.86
54248;BME280;40161;39.768;2.722;2023-04-06T11:21:19;101725.06;;;17.14;64.27
54248;BME280;40161;39.768;2.722;2023-04-06T11:23:45;101680.13;;;16.90;64.33
54248;BME280;40161;39.768;2.722;2023-04-06T11:26:12;101710.34;;;17.09;64.10
54248;BME280;40161;39.768;2.722;2023-04-06T11:28:38;101712.28;;;17.02;64.67
54248;BME280;40161;39.768;2.722;2023-04-06T11:31:05;101726.97;;;17.09;64.17
54248;BME280;40161;39.768;2.722;2023-04-06T11:33:35;101717.03;;;17.01;64.76
54248;BME280;40161;39.768;2.722;2023-04-06T11:36:02;101687.25;;;16.91;64.31
54248;BME280;40161;39.768;2.722;2023-04-06T11:38:28;101719.16;;;17.26;64.30
54248;BME280;40161;39.768;2.722;2023-04-06T11:40:53;101721.19;;;17.32;64.98
54248;BME280;40161;39.768;2.722;2023-04-06T11:43:27;101696.94;;;17.19;63.35
54248;BME280;40161;39.768;2.722;2023-04-06T11:46:04;101694.13;;;17.12;63.76
54248;BME280;40161;39.768;2.722;2023-04-06T11:48:31;101722.31;;;17.21;64.26
54248;BME280;40161;39.768;2.722;2023-04-06T11:50:58;101717.53;;;17.18;64.84
54248;BME280;40161;39.768;2.722;2023-04-06T11:53:26;101710.38;;;17.17;62.90
54248;BME280;40161;39.768;2.722;2023-04-06T11:55:52;101716.78;;;17.21;63.53
54248;BME280;40161;39.768;2.722;2023-04-06T11:58:18;101716.06;;;17.35;63.58
54248;BME280;40161;39.768;2.722;2023-04-06T12:00:43;101712.06;;;17.32;62.70
54248;BME280;40161;39.768;2.722;2023-04-06T12:03:11;101712.09;;;17.39;61.98
54248;BME280;40161;39.768;2.722;2023-04-06T12:05:37;101720.84;;;17.45;63.48
54248;BME280;40161;39.768;2.722;2023-04-06T12:08:03;101686.34;;;17.42;63.61
54248;BME280;40161;39.768;2.722;2023-04-06T12:10:29;101716.13;;;17.52;63.11
54248;BME280;40161;39.768;2.722;2023-04-06T12:12:55;101681.94;;;17.34;61.79
54248;BME280;40161;39.768;2.722;2023-04-06T12:15:20;101703.06;;;17.56;63.85
54248;BME280;40161;39.768;2.722;2023-04-06T12:17:47;101704.63;;;17.54;62.92
54248;BME280;40161;39.768;2.722;2023-04-06T12:20:12;101670.06;;;17.37;61.90
54248;BME280;40161;39.768;2.722;2023-04-06T12:22:39;101696.28;;;17.50;62.32
54248;BME280;40161;39.768;2.722;2023-04-06T12:25:05;101699.09;;;17.58;61.50
54248;BME280;40161;39.768;2.722;2023-04-06T12:27:32;101682.03;;;17.52;62.46
54248;BME280;40161;39.768;2.722;2023-04-06T12:29:57;101695.09;;;17.48;62.15
54248;BME280;40161;39.768;2.722;2023-04-06T12:32:23;101683.97;;;17.48;62.69
54248;BME280;40161;39.768;2.722;2023-04-06T12:34:49;101689.59;;;17.55;62.55
54248;BME280;40161;39.768;2.722;2023-04-06T12:37:14;101687.63;;;17.66;62.24
54248;BME280;40161;39.768;2.722;2023-04-06T12:39:40;101688.44;;;17.70;62.47
54248;BME280;40161;39.768;2.722;2023-04-06T12:42:06;101674.09;;;17.54;62.93
54248;BME280;40161;39.768;2.722;2023-04-06T12:44:32;101666.22;;;17.63;61.53
54248;BME280;40161;39.768;2.722;2023-04-06T12:46:57;101675.72;;;17.62;61.74
54248;BME280;40161;39.768;2.722;2023-04-06T12:49:23;101673.34;;;17.68;61.46
54248;BME280;40161;39.768;2.722;2023-04-06T12:51:48;101669.00;;;17.70;61.13